sensor_id;sensor_type;location;lat;lon;timestamp;pressure;altitude;pressure_sealevel;temperature;humidity
51687;BME280;37774;52.192;4.584;2023-02-11T00:00:26;103743.66;;;6.14;100.00
51687;BME280;37774;52.192;4.584;2023-02-11T00:02:53;103816.66;;;6.57;100.00
51687;BME280;37774;52.192;4.584;2023-02-11T00:05:20;103823.25;;;6.52;100.00
51687;BME280;37774;52.192;4.584;2023-02-11T00:07:46;103828.41;;;6.52;100.00
51687;BME280;37774;52.192;4.584;2023-02-11T00:10:13;103805.63;;;6.45;100.00
51687;BME280;37774;52.192;4.584;2023-02-11T00:12:40;103808.47;;;6.34;100.00
51687;BME280;37774;52.192;4.584;2023-02-11T00:15:09;103833.59;;;6.52;100.00
51687;BME280;37774;52.192;4.584;2023-02-11T00:17:36;103833.59;;;6.52;100.00
51687;BME280;37774;52.192;4.584;2023-02-11T00:20:03;103565.31;;;5.05;100.00
51687;BME280;37774;52.192;4.584;2023-02-11T00:22:30;103810.44;;;6.53;100.00
51687;BME280;37774;52.192;4.584;2023-02-11T00:24:57;103805.34;;;6.55;100.00
51687;BME280;37774;52.192;4.584;2023-02-11T00:27:24;103791.03;;;6.45;100.00
51687;BME280;37774;52.192;4.584;2023-02-11T00:29:51;103694.38;;;5.51;100.00
51687;BME280;37774;52.192;4.584;2023-02-11T00:32:19;103516.88;;;4.71;100.00
51687;BME280;37774;52.192;4.584;2023-02-11T00:34:46;103837.06;;;6.52;100.00
51687;BME280;37774;52.192;4.584;2023-02-11T00:37:12;103858.72;;;6.54;100.00
51687;BME280;37774;52.192;4.584;2023-02-11T00:39:39;103836.00;;;6.49;100.00
51687;BME280;37774;52.192;4.584;2023-02-11T00:42:06;103805.63;;;6.29;100.00
51687;BME280;37774;52.192;4.584;2023-02-11T00:44:32;103844.66;;;6.49;100.00
51687;BME280;37774;52.192;4.584;2023-02-11T00:46:59;103823.78;;;6.31;100.00
51687;BME280;37774;52.192;4.584;2023-02-11T00:49:27;103837.69;;;6.48;100.00
51687;BME280;37774;52.192;4.584;2023-02-11T00:51:54;103834.22;;;6.48;100.00
51687;BME280;37774;52.192;4.584;2023-02-11T00:54:21;103769.19;;;6.10;100.00
51687;BME280;37774;52.192;4.584;2023-02-11T00:56:47;103846.44;;;6.50;100.00
51687;BME280;37774;52.192;4.584;2023-02-11T00:59:14;103842.13;;;6.51;100.00
51687;BME280;37774;52.192;4.584;2023-02-11T01:01:41;103846.59;;;6.53;100.00
51687;BME280;37774;52.192;4.584;2023-02-11T01:04:08;103834.38;;;6.51;100.00
51687;BME280;37774;52.192;4.584;2023-02-11T01:06:36;103743.19;;;5.92;100.00
51687;BME280;37774;52.192;4.584;2023-02-11T01:09:03;103832.44;;;6.47;100.00
51687;BME280;37774;52.192;4.584;2023-02-11T01:11:30;103824.50;;;6.43;100.00
51687;BME280;37774;52.192;4.584;2023-02-11T01:13:56;103811.56;;;6.28;100.00
51687;BME280;37774;52.192;4.584;2023-02-11T01:16:23;103824.59;;;6.30;100.00
51687;BME280;37774;52.192;4.584;2023-02-11T01:18:50;103816.03;;;6.16;100.00
51687;BME280;37774;52.192;4.584;2023-02-11T01:21:17;103819.69;;;6.20;100.00
51687;BME280;37774;52.192;4.584;2023-02-11T01:23:45;103813.09;;;6.10;100.00
51687;BME280;37774;52.192;4.584;2023-02-11T01:26:12;103819.34;;;6.13;100.00
51687;BME280;37774;52.192;4.584;2023-02-11T01:28:38;103827.88;;;6.12;100.00
51687;BME280;37774;52.192;4.584;2023-02-11T01:31:05;103836.34;;;6.10;100.00
51687;BME280;37774;52.192;4.584;2023-02-11T01:33:32;103835.09;;;6.03;100.00
51687;BME280;37774;52.192;4.584;2023-02-11T01:36:00;103827.56;;;5.93;100.00
51687;BME280;37774;52.192;4.584;2023-02-11T01:38:28;103820.03;;;5.82;100.00
51687;BME280;37774;52.192;4.584;2023-02-11T01:40:58;103849.38;;;5.98;100.00
51687;BME280;37774;52.192;4.584;2023-02-11T01:43:26;103851.16;;;5.99;100.00
51687;BME280;37774;52.192;4.584;2023-02-11T01:46:00;103855.97;;;5.93;100.00
51687;BME280;37774;52.192;4.584;2023-02-11T01:48:32;103867.69;;;5.88;100.00
51687;BME280;37774;52.192;4.584;2023-02-11T01:51:04;103872.56;;;5.83;100.00
51687;BME280;37774;52.192;4.584;2023-02-11T01:53:33;103848.13;;;5.63;100.00
51687;BME280;37774;52.192;4.584;2023-02-11T01:56:20;103886.16;;;5.80;100.00
51687;BME280;37774;52.192;4.584;2023-02-11T01:59:08;103824.28;;;5.38;100.00
51687;BME280;37774;52.192;4.584;2023-02-11T02:01:37;103908.03;;;5.72;100.00
51687;BME280;37774;52.192;4.584;2023-02-11T02:04:07;103876.59;;;5.64;100.00
51687;BME280;37774;52.192;4.584;2023-02-11T02:06:39;103660.66;;;4.21;100.00
51687;BME280;37774;52.192;4.584;2023-02-11T02:09:15;103894.47;;;5.61;100.00
51687;BME280;37774;52.192;4.584;2023-02-11T02:11:47;103899.91;;;5.66;100.00
51687;BME280;37774;52.192;4.584;2023-02-11T02:14:13;103883.69;;;5.40;100.00
51687;BME280;37774;52.192;4.584;2023-02-11T02:16:40;103931.78;;;5.66;100.00
51687;BME280;37774;52.192;4.584;2023-02-11T02:19:29;103931.28;;;5.59;100.00
51687;BME280;37774;52.192;4.584;2023-02-11T02:25:10;103920.31;;;5.48;100.00
51687;BME280;37774;52.192;4.584;2023-02-11T02:27:47;103951.66;;;5.54;100.00
51687;BME280;37774;52.192;4.584;2023-02-11T02:30:38;103948.88;;;5.51;100.00
51687;BME280;37774;52.192;4.584;2023-02-11T02:33:36;103959.47;;;5.55;100.00
51687;BME280;37774;52.192;4.584;2023-02-11T02:36:13;103917.91;;;5.24;100.00
51687;BME280;37774;52.192;4.584;2023-02-11T02:38:47;103973.88;;;5.52;100.00
51687;BME280;37774;52.192;4.584;2023-02-11T02:41:19;103667.16;;;3.75;100.00
51687;BME280;37774;52.192;4.584;2023-02-11T02:43:48;103974.75;;;5.52;100.00
51687;BME280;37774;52.192;4.584;2023-02-11T02:46:17;103976.47;;;5.52;100.00
51687;BME280;37774;52.192;4.584;2023-02-11T02:48:47;103989.03;;;5.47;100.00
51687;BME280;37774;52.192;4.584;2023-02-11T02:51:26;103953.34;;;5.26;100.00
51687;BME280;37774;52.192;4.584;2023-02-11T02:54:12;103891.34;;;4.85;100.00
51687;BME280;37774;52.192;4.584;2023-02-11T02:56:47;103935.38;;;5.01;100.00
51687;BME280;37774;52.192;4.584;2023-02-11T02:59:26;104022.69;;;5.49;100.00
51687;BME280;37774;52.192;4.584;2023-02-11T03:02:03;103945.59;;;5.00;100.00
51687;BME280;37774;52.192;4.584;2023-02-11T03:04:39;103784.75;;;4.42;100.00
51687;BME280;37774;52.192;4.584;2023-02-11T03:07:15;103572.16;;;3.65;100.00
51687;BME280;37774;52.192;4.584;2023-02-11T03:09:48;103854.78;;;5.17;100.00
51687;BME280;37774;52.192;4.584;2023-02-11T03:12:17;103886.06;;;5.50;100.00
51687;BME280;37774;52.192;4.584;2023-02-11T03:14:45;103877.84;;;5.43;100.00
51687;BME280;37774;52.192;4.584;2023-02-11T03:17:15;103892.31;;;5.54;100.00
51687;BME280;37774;52.192;4.584;2023-02-11T03:19:45;103900.66;;;5.50;100.00
51687;BME280;37774;52.192;4.584;2023-02-11T03:22:17;103842.38;;;5.11;100.00
51687;BME280;37774;52.192;4.584;2023-02-11T03:24:45;103885.28;;;5.38;100.00
51687;BME280;37774;52.192;4.584;2023-02-11T03:27:18;103864.75;;;5.26;100.00
51687;BME280;37774;52.192;4.584;2023-02-11T03:29:51;103898.88;;;5.49;100.00
51687;BME280;37774;52.192;4.584;2023-02-11T03:32:24;103915.84;;;5.45;100.00
51687;BME280;37774;52.192;4.584;2023-02-11T03:34:56;103893.78;;;5.50;100.00
51687;BME280;37774;52.192;4.584;2023-02-11T03:37:27;103854.78;;;5.17;100.00
51687;BME280;37774;52.192;4.584;2023-02-11T03:40:00;103876.47;;;5.21;100.00
51687;BME280;37774;52.192;4.584;2023-02-11T03:42:31;103886.97;;;5.51;100.00
51687;BME280;37774;52.192;4.584;2023-02-11T03:45:05;103833.94;;;5.28;100.00
51687;BME280;37774;52.192;4.584;2023-02-11T03:47:35;103872.34;;;5.51;100.00
51687;BME280;37774;52.192;4.584;2023-02-11T03:50:07;103866.41;;;5.52;100.00
51687;BME280;37774;52.192;4.584;2023-02-11T03:52:36;103665.88;;;4.49;100.00
51687;BME280;37774;52.192;4.584;2023-02-11T03:55:07;103844.31;;;5.43;100.00
51687;BME280;37774;52.192;4.584;2023-02-11T03:57:35;103846.47;;;5.50;100.00
51687;BME280;37774;52.192;4.584;2023-02-11T04:00:03;103727.16;;;4.82;100.00
51687;BME280;37774;52.192;4.584;2023-02-11T04:02:33;103828.34;;;5.35;100.00
51687;BME280;37774;52.192;4.584;2023-02-11T04:05:00;103801.50;;;5.18;100.00
51687;BME280;37774;52.192;4.584;2023-02-11T04:07:29;103769.72;;;5.04;100.00
51687;BME280;37774;52.192;4.584;2023-02-11T04:09:56;103843.59;;;5.45;100.00
51687;BME280;37774;52.192;4.584;2023-02-11T04:12:22;103836.97;;;5.49;100.00
51687;BME280;37774;52.192;4.584;2023-02-11T04:14:49;103854.91;;;5.47;100.00
51687;BME280;37774;52.192;4.584;2023-02-11T04:17:17;103601.66;;;3.84;100.00
51687;BME280;37774;52.192;4.584;2023-02-11T04:19:44;103860.75;;;5.58;100.00
51687;BME280;37774;52.192;4.584;2023-02-11T04:22:14;103853.88;;;5.59;100.00
51687;BME280;37774;52.192;4.584;2023-02-11T04:24:42;103811.47;;;5.40;100.00
51687;BME280;37774;52.192;4.584;2023-02-11T04:27:09;103820.00;;;5.39;100.00
51687;BME280;37774;52.192;4.584;2023-02-11T04:29:36;103848.50;;;5.69;100.00
51687;BME280;37774;52.192;4.584;2023-02-11T04:32:03;103842.94;;;5.63;100.00
51687;BME280;37774;52.192;4.584;2023-02-11T04:34:30;103790.66;;;5.37;100.00
51687;BME280;37774;52.192;4.584;2023-02-11T04:36:57;103786.59;;;5.27;100.00
51687;BME280;37774;52.192;4.584;2023-02-11T04:39:24;103865.81;;;5.85;100.00
51687;BME280;37774;52.192;4.584;2023-02-11T04:41:52;103816.31;;;5.49;100.00
51687;BME280;37774;52.192;4.584;2023-02-11T04:44:18;103869.06;;;5.82;100.00
51687;BME280;37774;52.192;4.584;2023-02-11T04:46:45;103820.09;;;5.54;100.00
51687;BME280;37774;52.192;4.584;2023-02-11T04:49:13;103843.75;;;5.62;100.00
51687;BME280;37774;52.192;4.584;2023-02-11T04:51:40;103851.81;;;5.81;100.00
51687;BME280;37774;52.192;4.584;2023-02-11T04:54:07;103866.59;;;5.84;100.00
51687;BME280;37774;52.192;4.584;2023-02-11T04:56:34;103877.84;;;5.84;100.00
51687;BME280;37774;52.192;4.584;2023-02-11T04:59:02;103884.00;;;5.87;100.00
51687;BME280;37774;52.192;4.584;2023-02-11T05:01:30;103883.19;;;5.88;100.00
51687;BME280;37774;52.192;4.584;2023-02-11T05:03:57;103538.41;;;3.87;100.00
51687;BME280;37774;52.192;4.584;2023-02-11T05:06:24;103892.00;;;5.91;100.00
51687;BME280;37774;52.192;4.584;2023-02-11T05:08:51;103886.94;;;5.93;100.00
51687;BME280;37774;52.192;4.584;2023-02-11T05:11:19;103884.44;;;5.94;100.00
51687;BME280;37774;52.192;4.584;2023-02-11T05:13:47;103885.41;;;5.96;100.00
51687;BME280;37774;52.192;4.584;2023-02-11T05:16:15;103870.69;;;5.80;100.00
51687;BME280;37774;52.192;4.584;2023-02-11T05:18:43;103885.16;;;5.92;100.00
51687;BME280;37774;52.192;4.584;2023-02-11T05:21:12;103917.00;;;6.06;100.00
51687;BME280;37774;52.192;4.584;2023-02-11T05:23:39;103905.06;;;6.08;100.00
51687;BME280;37774;52.192;4.584;2023-02-11T05:26:06;103844.66;;;5.62;100.00
51687;BME280;37774;52.192;4.584;2023-02-11T05:28:33;103591.44;;;3.99;100.00
51687;BME280;37774;52.192;4.584;2023-02-11T05:31:00;103729.72;;;4.82;100.00
51687;BME280;37774;52.192;4.584;2023-02-11T05:33:29;103925.03;;;6.10;100.00
51687;BME280;37774;52.192;4.584;2023-02-11T05:35:57;103928.66;;;6.14;100.00
51687;BME280;37774;52.192;4.584;2023-02-11T05:38:24;103917.38;;;5.98;100.00
51687;BME280;37774;52.192;4.584;2023-02-11T05:40:51;103789.47;;;5.32;100.00
51687;BME280;37774;52.192;4.584;2023-02-11T05:43:17;103934.03;;;6.17;100.00
51687;BME280;37774;52.192;4.584;2023-02-11T05:45:44;103935.00;;;6.19;100.00
51687;BME280;37774;52.192;4.584;2023-02-11T05:48:11;103935.81;;;6.18;100.00
51687;BME280;37774;52.192;4.584;2023-02-11T05:50:39;103931.53;;;6.19;100.00
51687;BME280;37774;52.192;4.584;2023-02-11T05:53:06;103870.50;;;5.77;100.00
51687;BME280;37774;52.192;4.584;2023-02-11T05:55:33;103920.88;;;5.99;100.00
51687;BME280;37774;52.192;4.584;2023-02-11T05:58:00;103897.88;;;5.89;100.00
51687;BME280;37774;52.192;4.584;2023-02-11T06:00:27;103944.53;;;6.20;100.00
51687;BME280;37774;52.192;4.584;2023-02-11T06:02:53;103940.16;;;6.19;100.00
51687;BME280;37774;52.192;4.584;2023-02-11T06:05:20;103942.75;;;6.19;100.00
51687;BME280;37774;52.192;4.584;2023-02-11T06:07:48;103930.88;;;6.08;100.00
51687;BME280;37774;52.192;4.584;2023-02-11T06:10:15;103888.06;;;5.83;100.00
51687;BME280;37774;52.192;4.584;2023-02-11T06:12:42;103963.78;;;6.25;100.00
51687;BME280;37774;52.192;4.584;2023-02-11T06:15:10;103965.50;;;6.25;100.00
51687;BME280;37774;52.192;4.584;2023-02-11T06:17:45;103893.97;;;6.24;100.00
51687;BME280;37774;52.192;4.584;2023-02-11T06:20:12;103795.41;;;5.44;100.00
51687;BME280;37774;52.192;4.584;2023-02-11T06:22:38;103730.69;;;4.97;100.00
51687;BME280;37774;52.192;4.584;2023-02-11T06:25:05;103940.03;;;6.31;100.00
51687;BME280;37774;52.192;4.584;2023-02-11T06:27:38;103943.59;;;6.33;100.00
51687;BME280;37774;52.192;4.584;2023-02-11T06:30:06;103935.84;;;6.33;100.00
51687;BME280;37774;52.192;4.584;2023-02-11T06:32:33;103927.13;;;6.31;100.00
51687;BME280;37774;52.192;4.584;2023-02-11T06:35:02;103933.88;;;6.29;100.00
51687;BME280;37774;52.192;4.584;2023-02-11T06:37:28;103936.72;;;6.34;100.00
51687;BME280;37774;52.192;4.584;2023-02-11T06:39:55;103777.81;;;5.23;100.00
51687;BME280;37774;52.192;4.584;2023-02-11T06:42:22;103947.84;;;6.33;100.00
51687;BME280;37774;52.192;4.584;2023-02-11T06:44:49;103696.25;;;4.82;100.00
51687;BME280;37774;52.192;4.584;2023-02-11T06:47:16;103879.22;;;5.79;100.00
51687;BME280;37774;52.192;4.584;2023-02-11T06:49:42;103942.31;;;6.26;100.00
51687;BME280;37774;52.192;4.584;2023-02-11T06:52:11;103825.94;;;5.51;100.00
51687;BME280;37774;52.192;4.584;2023-02-11T06:54:38;103876.69;;;5.66;100.00
51687;BME280;37774;52.192;4.584;2023-02-11T06:57:05;103956.13;;;6.27;100.00
51687;BME280;37774;52.192;4.584;2023-02-11T06:59:32;103953.44;;;6.25;100.00
51687;BME280;37774;52.192;4.584;2023-02-11T07:01:58;103967.63;;;6.32;100.00
51687;BME280;37774;52.192;4.584;2023-02-11T07:04:25;103968.25;;;6.28;100.00
51687;BME280;37774;52.192;4.584;2023-02-11T07:06:52;103969.44;;;6.33;100.00
51687;BME280;37774;52.192;4.584;2023-02-11T07:09:20;103967.03;;;6.36;100.00
51687;BME280;37774;52.192;4.584;2023-02-11T07:11:47;103973.88;;;6.36;100.00
51687;BME280;37774;52.192;4.584;2023-02-11T07:14:14;103893.09;;;5.81;100.00
51687;BME280;37774;52.192;4.584;2023-02-11T07:16:41;103981.72;;;6.37;100.00
51687;BME280;37774;52.192;4.584;2023-02-11T07:19:08;103562.75;;;3.92;100.00
51687;BME280;37774;52.192;4.584;2023-02-11T07:21:35;103991.38;;;6.40;100.00
51687;BME280;37774;52.192;4.584;2023-02-11T07:24:05;103989.66;;;6.40;100.00
51687;BME280;37774;52.192;4.584;2023-02-11T07:26:34;103785.97;;;5.16;100.00
51687;BME280;37774;52.192;4.584;2023-02-11T07:29:01;103994.41;;;6.48;100.00
51687;BME280;37774;52.192;4.584;2023-02-11T07:31:29;104010.88;;;6.50;100.00
51687;BME280;37774;52.192;4.584;2023-02-11T07:33:58;104004.91;;;6.51;100.00
51687;BME280;37774;52.192;4.584;2023-02-11T07:36:26;104004.31;;;6.55;100.00
51687;BME280;37774;52.192;4.584;2023-02-11T07:38:53;103944.31;;;6.02;100.00
51687;BME280;37774;52.192;4.584;2023-02-11T07:41:22;104011.25;;;6.56;100.00
51687;BME280;37774;52.192;4.584;2023-02-11T07:43:50;103971.44;;;6.24;100.00
51687;BME280;37774;52.192;4.584;2023-02-11T07:46:19;104004.41;;;6.56;100.00
51687;BME280;37774;52.192;4.584;2023-02-11T07:48:47;103938.69;;;6.23;100.00
51687;BME280;37774;52.192;4.584;2023-02-11T07:51:15;103988.63;;;6.52;100.00
51687;BME280;37774;52.192;4.584;2023-02-11T07:53:43;104008.41;;;6.66;100.00
51687;BME280;37774;52.192;4.584;2023-02-11T07:56:11;104011.97;;;6.68;100.00
51687;BME280;37774;52.192;4.584;2023-02-11T07:58:38;104007.91;;;6.72;100.00
51687;BME280;37774;52.192;4.584;2023-02-11T08:01:09;104012.34;;;6.75;100.00
51687;BME280;37774;52.192;4.584;2023-02-11T08:03:38;104012.34;;;6.75;100.00
51687;BME280;37774;52.192;4.584;2023-02-11T08:06:07;104016.91;;;6.79;100.00
51687;BME280;37774;52.192;4.584;2023-02-11T08:08:35;103791.59;;;5.52;100.00
51687;BME280;37774;52.192;4.584;2023-02-11T08:11:05;103744.75;;;5.03;100.00
51687;BME280;37774;52.192;4.584;2023-02-11T08:13:32;104013.88;;;6.86;100.00
51687;BME280;37774;52.192;4.584;2023-02-11T08:15:59;104033.06;;;6.90;100.00
51687;BME280;37774;52.192;4.584;2023-02-11T08:18:27;104019.50;;;6.94;100.00
51687;BME280;37774;52.192;4.584;2023-02-11T08:20:54;103917.59;;;6.30;100.00
51687;BME280;37774;52.192;4.584;2023-02-11T08:23:21;103923.13;;;6.36;100.00
51687;BME280;37774;52.192;4.584;2023-02-11T08:25:48;103778.13;;;5.43;100.00
51687;BME280;37774;52.192;4.584;2023-02-11T08:28:15;104030.22;;;7.00;100.00
51687;BME280;37774;52.192;4.584;2023-02-11T08:30:42;103931.66;;;6.35;100.00
51687;BME280;37774;52.192;4.584;2023-02-11T08:33:09;104038.06;;;7.01;100.00
51687;BME280;37774;52.192;4.584;2023-02-11T08:35:37;104005.13;;;6.84;100.00
51687;BME280;37774;52.192;4.584;2023-02-11T08:38:04;104043.59;;;7.08;100.00
51687;BME280;37774;52.192;4.584;2023-02-11T08:40:31;104024.53;;;7.06;100.00
51687;BME280;37774;52.192;4.584;2023-02-11T08:42:58;104041.78;;;7.22;100.00
51687;BME280;37774;52.192;4.584;2023-02-11T08:45:25;104033.06;;;7.20;100.00
51687;BME280;37774;52.192;4.584;2023-02-11T08:47:52;103967.59;;;6.76;100.00
51687;BME280;37774;52.192;4.584;2023-02-11T08:50:18;103759.84;;;5.53;100.00
51687;BME280;37774;52.192;4.584;2023-02-11T08:52:47;103721.03;;;5.37;100.00
51687;BME280;37774;52.192;4.584;2023-02-11T08:55:14;103753.81;;;5.68;100.00
51687;BME280;37774;52.192;4.584;2023-02-11T08:57:41;103796.22;;;5.87;100.00
51687;BME280;37774;52.192;4.584;2023-02-11T09:00:08;104032.44;;;7.39;100.00
51687;BME280;37774;52.192;4.584;2023-02-11T09:02:35;103969.22;;;6.89;100.00
51687;BME280;37774;52.192;4.584;2023-02-11T09:05:02;103917.41;;;6.87;100.00
51687;BME280;37774;52.192;4.584;2023-02-11T09:07:29;103788.72;;;6.20;100.00
51687;BME280;37774;52.192;4.584;2023-02-11T09:09:57;103683.97;;;5.50;100.00
51687;BME280;37774;52.192;4.584;2023-02-11T09:12:24;103628.78;;;5.18;100.00
51687;BME280;37774;52.192;4.584;2023-02-11T09:14:51;103886.84;;;6.80;100.00
51687;BME280;37774;52.192;4.584;2023-02-11T09:17:18;104003.72;;;7.66;100.00
51687;BME280;37774;52.192;4.584;2023-02-11T09:19:45;103882.66;;;6.97;100.00
51687;BME280;37774;52.192;4.584;2023-02-11T09:22:12;103817.66;;;6.44;100.00
51687;BME280;37774;52.192;4.584;2023-02-11T09:24:38;103907.69;;;7.13;100.00
51687;BME280;37774;52.192;4.584;2023-02-11T09:27:07;104000.66;;;7.73;100.00
51687;BME280;37774;52.192;4.584;2023-02-11T09:29:33;103992.03;;;7.72;100.00
51687;BME280;37774;52.192;4.584;2023-02-11T09:32:01;103921.75;;;7.18;100.00
51687;BME280;37774;52.192;4.584;2023-02-11T09:34:28;103899.66;;;7.08;100.00
51687;BME280;37774;52.192;4.584;2023-02-11T09:36:54;103912.22;;;7.17;100.00
51687;BME280;37774;52.192;4.584;2023-02-11T09:39:22;103936.19;;;7.29;100.00
51687;BME280;37774;52.192;4.584;2023-02-11T09:42:14;103642.34;;;5.59;100.00
51687;BME280;37774;52.192;4.584;2023-02-11T09:44:44;103789.88;;;6.40;100.00
51687;BME280;37774;52.192;4.584;2023-02-11T09:47:22;103987.66;;;7.71;100.00
51687;BME280;37774;52.192;4.584;2023-02-11T09:49:52;103879.44;;;7.01;100.00
51687;BME280;37774;52.192;4.584;2023-02-11T09:52:29;103926.34;;;7.39;100.00
51687;BME280;37774;52.192;4.584;2023-02-11T09:54:58;103971.16;;;7.86;100.00
51687;BME280;37774;52.192;4.584;2023-02-11T09:57:31;103881.34;;;7.20;100.00
51687;BME280;37774;52.192;4.584;2023-02-11T09:59:58;103866.19;;;7.11;100.00
51687;BME280;37774;52.192;4.584;2023-02-11T10:02:31;103768.34;;;6.71;100.00
51687;BME280;37774;52.192;4.584;2023-02-11T10:05:18;103906.31;;;7.51;100.00
51687;BME280;37774;52.192;4.584;2023-02-11T10:07:57;103614.59;;;5.69;100.00
51687;BME280;37774;52.192;4.584;2023-02-11T10:10:43;104000.09;;;8.10;100.00
51687;BME280;37774;52.192;4.584;2023-02-11T10:13:31;104027.94;;;8.14;100.00
51687;BME280;37774;52.192;4.584;2023-02-11T10:16:23;103837.72;;;7.26;100.00
51687;BME280;37774;52.192;4.584;2023-02-11T10:19:17;103762.94;;;6.83;100.00
51687;BME280;37774;52.192;4.584;2023-02-11T10:22:08;103518.16;;;5.52;100.00
51687;BME280;37774;52.192;4.584;2023-02-11T10:24:40;103564.19;;;5.76;100.00
51687;BME280;37774;52.192;4.584;2023-02-11T10:27:16;103782.53;;;6.94;100.00
51687;BME280;37774;52.192;4.584;2023-02-11T10:29:48;103696.66;;;6.52;100.00
51687;BME280;37774;52.192;4.584;2023-02-11T10:32:30;103660.25;;;6.47;100.00
51687;BME280;37774;52.192;4.584;2023-02-11T10:35:02;103939.69;;;7.95;100.00
51687;BME280;37774;52.192;4.584;2023-02-11T10:37:30;103489.31;;;5.60;100.00
51687;BME280;37774;52.192;4.584;2023-02-11T10:39:58;103764.06;;;7.20;100.00
51687;BME280;37774;52.192;4.584;2023-02-11T10:42:27;103677.91;;;6.56;100.00
51687;BME280;37774;52.192;4.584;2023-02-11T10:44:59;103910.56;;;8.15;100.00
51687;BME280;37774;52.192;4.584;2023-02-11T10:47:32;103710.06;;;7.09;100.00
51687;BME280;37774;52.192;4.584;2023-02-11T10:52:46;103998.53;;;8.80;100.00
51687;BME280;37774;52.192;4.584;2023-02-11T10:55:16;103745.63;;;7.30;100.00
51687;BME280;37774;52.192;4.584;2023-02-11T10:57:52;103940.91;;;8.51;100.00
51687;BME280;37774;52.192;4.584;2023-02-11T11:00:30;103711.50;;;7.04;100.00
51687;BME280;37774;52.192;4.584;2023-02-11T11:03:00;103929.66;;;8.34;100.00
51687;BME280;37774;52.192;4.584;2023-02-11T11:05:32;104069.06;;;8.73;100.00
51687;BME280;37774;52.192;4.584;2023-02-11T11:08:01;104083.47;;;8.84;100.00
51687;BME280;37774;52.192;4.584;2023-02-11T11:10:37;104003.34;;;8.23;100.00
51687;BME280;37774;52.192;4.584;2023-02-11T11:13:28;104060.78;;;8.80;100.00
51687;BME280;37774;52.192;4.584;2023-02-11T11:16:09;103872.44;;;7.63;100.00
51687;BME280;37774;52.192;4.584;2023-02-11T11:18:43;103962.28;;;8.14;100.00
51687;BME280;37774;52.192;4.584;2023-02-11T11:21:13;104047.56;;;8.75;100.00
51687;BME280;37774;52.192;4.584;2023-02-11T11:23:46;104043.84;;;8.70;100.00
51687;BME280;37774;52.192;4.584;2023-02-11T11:26:15;104019.06;;;8.59;100.00
51687;BME280;37774;52.192;4.584;2023-02-11T11:28:51;103891.44;;;7.80;100.00
51687;BME280;37774;52.192;4.584;2023-02-11T11:31:23;104010.31;;;8.57;100.00
51687;BME280;37774;52.192;4.584;2023-02-11T11:33:52;104031.00;;;8.90;100.00
51687;BME280;37774;52.192;4.584;2023-02-11T11:36:22;104038.63;;;9.03;100.00
51687;BME280;37774;52.192;4.584;2023-02-11T11:38:53;104025.56;;;9.02;100.00
51687;BME280;37774;52.192;4.584;2023-02-11T11:41:25;103980.88;;;8.73;100.00
51687;BME280;37774;52.192;4.584;2023-02-11T11:43:57;103921.06;;;8.52;100.00
51687;BME280;37774;52.192;4.584;2023-02-11T11:46:29;103992.75;;;8.86;100.00
51687;BME280;37774;52.192;4.584;2023-02-11T11:49:06;103965.63;;;8.79;100.00
51687;BME280;37774;52.192;4.584;2023-02-11T11:51:36;103676.28;;;6.90;100.00
51687;BME280;37774;52.192;4.584;2023-02-11T11:54:07;104005.84;;;9.05;100.00
51687;BME280;37774;52.192;4.584;2023-02-11T11:56:51;103622.88;;;6.73;100.00
51687;BME280;37774;52.192;4.584;2023-02-11T11:59:18;103995.69;;;9.10;100.00
51687;BME280;37774;52.192;4.584;2023-02-11T12:01:59;103991.69;;;8.99;100.00
51687;BME280;37774;52.192;4.584;2023-02-11T12:04:51;104000.50;;;9.02;100.00
51687;BME280;37774;52.192;4.584;2023-02-11T12:07:32;103880.56;;;8.54;100.00
51687;BME280;37774;52.192;4.584;2023-02-11T12:10:30;103978.78;;;9.18;100.00
51687;BME280;37774;52.192;4.584;2023-02-11T12:13:07;103876.81;;;8.48;100.00
51687;BME280;37774;52.192;4.584;2023-02-11T12:15:43;103919.31;;;8.87;100.00
51687;BME280;37774;52.192;4.584;2023-02-11T12:18:35;103883.69;;;8.65;100.00
51687;BME280;37774;52.192;4.584;2023-02-11T12:21:21;103948.94;;;9.09;100.00
51687;BME280;37774;52.192;4.584;2023-02-11T12:24:12;103685.94;;;7.60;100.00
51687;BME280;37774;52.192;4.584;2023-02-11T12:26:48;103815.78;;;8.37;100.00
51687;BME280;37774;52.192;4.584;2023-02-11T12:29:26;103613.72;;;7.13;100.00
51687;BME280;37774;52.192;4.584;2023-02-11T12:32:16;103629.00;;;7.25;100.00
51687;BME280;37774;52.192;4.584;2023-02-11T12:35:05;103963.72;;;9.11;100.00
51687;BME280;37774;52.192;4.584;2023-02-11T12:37:41;103949.50;;;9.21;100.00
51687;BME280;37774;52.192;4.584;2023-02-11T12:40:15;103692.50;;;7.53;100.00
51687;BME280;37774;52.192;4.584;2023-02-11T12:42:58;103883.47;;;8.78;100.00
51687;BME280;37774;52.192;4.584;2023-02-11T12:46:02;103947.88;;;9.23;100.00
51687;BME280;37774;52.192;4.584;2023-02-11T12:48:53;103955.59;;;9.03;100.00
51687;BME280;37774;52.192;4.584;2023-02-11T12:51:34;103821.06;;;8.22;100.00
51687;BME280;37774;52.192;4.584;2023-02-11T12:54:16;103945.16;;;9.20;100.00
51687;BME280;37774;52.192;4.584;2023-02-11T12:56:47;103940.53;;;9.14;100.00
51687;BME280;37774;52.192;4.584;2023-02-11T12:59:23;103967.75;;;9.04;100.00
51687;BME280;37774;52.192;4.584;2023-02-11T13:01:54;103950.09;;;9.15;100.00
51687;BME280;37774;52.192;4.584;2023-02-11T13:04:27;103838.13;;;8.70;100.00
51687;BME280;37774;52.192;4.584;2023-02-11T13:07:00;103857.00;;;8.67;100.00
51687;BME280;37774;52.192;4.584;2023-02-11T13:09:34;103777.53;;;8.15;100.00
51687;BME280;37774;52.192;4.584;2023-02-11T13:12:05;103761.13;;;8.14;100.00
51687;BME280;37774;52.192;4.584;2023-02-11T13:14:47;103870.94;;;8.87;100.00